createdAt,value
2018-06-17T00:00:24.494Z,98363.00
2018-06-17T00:02:52.825Z,98364.00
2018-06-17T00:05:21.277Z,98365.00
2018-06-17T00:07:49.632Z,98362.00
2018-06-17T00:10:17.932Z,98362.00
2018-06-17T00:12:46.258Z,98355.00
2018-06-17T00:15:15.545Z,98359.00
2018-06-17T00:20:34.071Z,98360.00
2018-06-17T00:23:03.408Z,98365.00
2018-06-17T00:25:31.962Z,98364.00
2018-06-17T00:28:00.470Z,98362.00
2018-06-17T00:30:28.938Z,98364.00
2018-06-17T00:32:57.287Z,98364.00
2018-06-17T00:35:25.646Z,98365.00
2018-06-17T00:37:53.982Z,98368.00
2018-06-17T00:40:22.653Z,98369.00
2018-06-17T00:42:51.034Z,98368.00
2018-06-17T00:45:19.417Z,98372.00
2018-06-17T00:47:47.753Z,98375.00
2018-06-17T00:50:16.250Z,98371.00
2018-06-17T00:52:44.567Z,98373.00
2018-06-17T00:55:13.064Z,98367.00
2018-06-17T00:57:46.173Z,98366.00
2018-06-17T01:00:14.850Z,98369.00
2018-06-17T01:02:43.252Z,98368.00
2018-06-17T01:05:11.574Z,98368.00
2018-06-17T01:07:39.910Z,98367.00
2018-06-17T01:10:08.266Z,98363.00
2018-06-17T01:12:37.959Z,98364.00
2018-06-17T01:15:06.613Z,98361.00
2018-06-17T01:17:34.932Z,98358.00
2018-06-17T01:20:03.661Z,98356.00
2018-06-17T01:22:31.977Z,98352.00
2018-06-17T01:25:00.355Z,98357.00
2018-06-17T01:27:28.683Z,98359.00
2018-06-17T01:29:57.105Z,98358.00
2018-06-17T01:32:25.654Z,98355.00
2018-06-17T01:34:53.978Z,98357.00
2018-06-17T01:37:22.323Z,98357.00
2018-06-17T01:39:50.678Z,98358.00
2018-06-17T01:42:19.153Z,98355.00
2018-06-17T01:44:47.490Z,98352.00
2018-06-17T01:47:15.831Z,98351.00
2018-06-17T01:49:44.144Z,98349.00
2018-06-17T01:52:12.531Z,98347.00
2018-06-17T01:54:40.973Z,98342.00
2018-06-17T01:57:09.422Z,98339.00
2018-06-17T01:59:38.012Z,98343.00
2018-06-17T02:02:06.491Z,98345.00
2018-06-17T02:04:40.378Z,98343.00
2018-06-17T02:07:14.138Z,98340.00
2018-06-17T02:11:54.954Z,98345.00
2018-06-17T02:14:28.429Z,98339.00
2018-06-17T02:16:56.762Z,98345.00
2018-06-17T02:19:25.172Z,98346.00
2018-06-17T02:21:53.994Z,98343.00
2018-06-17T02:24:22.333Z,98346.00
2018-06-17T02:26:50.677Z,98342.00
2018-06-17T02:29:19.084Z,98341.00
2018-06-17T02:31:47.442Z,98347.00
2018-06-17T02:34:15.758Z,98346.00
2018-06-17T02:36:44.107Z,98348.00
2018-06-17T02:39:12.441Z,98371.00
2018-06-17T02:41:40.820Z,98370.00
2018-06-17T02:44:09.243Z,98370.00
2018-06-17T02:46:42.888Z,98378.00
2018-06-17T02:49:16.961Z,98374.00
2018-06-17T02:51:50.775Z,98381.00
2018-06-17T02:54:51.367Z,98379.00
2018-06-17T02:57:20.393Z,98380.00
2018-06-17T02:59:48.942Z,98390.00
2018-06-17T03:02:17.742Z,98390.00
2018-06-17T03:04:46.170Z,98395.00
2018-06-17T03:07:14.582Z,98391.00
2018-06-17T03:09:43.232Z,98399.00
2018-06-17T03:12:11.666Z,98399.00
2018-06-17T03:14:40.161Z,98403.00
2018-06-17T03:17:08.568Z,98401.00
2018-06-17T03:19:37.851Z,98403.00
2018-06-17T03:22:07.317Z,98392.00
2018-06-17T03:24:41.774Z,98399.00
2018-06-17T03:27:16.528Z,98404.00
2018-06-17T03:29:50.328Z,98404.00
2018-06-17T03:32:24.299Z,98403.00
2018-06-17T03:34:58.077Z,98404.00
2018-06-17T03:37:26.503Z,98405.00
2018-06-17T03:39:55.353Z,98403.00
2018-06-17T03:42:23.711Z,98409.00
2018-06-17T03:44:52.111Z,98414.00
2018-06-17T03:47:20.694Z,98412.00
2018-06-17T03:49:49.957Z,98412.00
2018-06-17T03:52:18.583Z,98417.00
2018-06-17T03:54:47.412Z,98421.00
2018-06-17T03:57:15.803Z,98425.00
2018-06-17T03:59:44.212Z,98433.00
2018-06-17T04:02:12.599Z,98442.00
2018-06-17T04:04:46.799Z,98441.00
2018-06-17T04:07:15.226Z,98440.00
2018-06-17T04:09:43.650Z,98439.00
2018-06-17T04:12:12.049Z,98443.00
2018-06-17T04:14:40.813Z,98444.00
2018-06-17T04:17:13.196Z,98440.00
2018-06-17T04:19:42.707Z,98439.00
2018-06-17T04:22:11.427Z,98435.00
2018-06-17T04:24:41.119Z,98428.00
2018-06-17T04:27:09.809Z,98433.00
2018-06-17T04:29:38.226Z,98437.00
2018-06-17T04:32:06.711Z,98448.00
2018-06-17T04:34:35.129Z,98448.00
2018-06-17T04:37:03.565Z,98441.00
2018-06-17T04:39:32.250Z,98441.00
2018-06-17T04:42:00.648Z,98443.00
2018-06-17T04:44:29.109Z,98446.00
2018-06-17T04:46:57.962Z,98446.00
2018-06-17T04:49:26.434Z,98451.00
2018-06-17T04:51:56.705Z,98448.00
2018-06-17T04:54:25.102Z,98454.00
2018-06-17T04:56:53.622Z,98452.00
2018-06-17T04:59:21.975Z,98454.00
2018-06-17T05:01:50.475Z,98454.00
2018-06-17T05:04:18.973Z,98459.00
2018-06-17T05:06:47.437Z,98458.00
2018-06-17T05:09:15.819Z,98455.00
2018-06-17T05:11:44.295Z,98458.00
2018-06-17T05:14:12.706Z,98462.00
2018-06-17T05:16:41.163Z,98462.00
2018-06-17T05:19:12.068Z,98455.00
2018-06-17T05:21:41.671Z,98459.00
2018-06-17T05:24:10.069Z,98453.00
2018-06-17T05:26:38.593Z,98457.00
2018-06-17T05:29:07.717Z,98464.00
2018-06-17T05:31:36.139Z,98464.00
2018-06-17T05:34:04.573Z,98463.00
2018-06-17T05:36:33.016Z,98464.00
2018-06-17T05:39:02.377Z,98463.00
2018-06-17T05:41:30.828Z,98466.00
2018-06-17T05:43:59.456Z,98470.00
2018-06-17T05:46:28.022Z,98470.00
2018-06-17T05:48:56.409Z,98464.00
2018-06-17T05:51:24.796Z,98465.00
2018-06-17T05:53:53.207Z,98467.00
2018-06-17T05:56:21.786Z,98467.00
2018-06-17T05:58:50.245Z,98464.00
2018-06-17T06:01:18.672Z,98465.00
2018-06-17T06:03:48.304Z,98464.00
2018-06-17T06:06:16.740Z,98477.00
2018-06-17T06:08:45.137Z,98477.00
2018-06-17T06:11:13.532Z,98482.00
2018-06-17T06:13:41.969Z,98478.00
2018-06-17T06:16:10.379Z,98490.00
2018-06-17T06:18:39.684Z,98493.00
2018-06-17T06:21:08.363Z,98494.00
2018-06-17T06:23:36.863Z,98497.00
2018-06-17T06:26:05.361Z,98498.00
2018-06-17T06:28:33.914Z,98500.00
2018-06-17T06:31:02.373Z,98506.00
2018-06-17T06:33:30.916Z,98509.00
2018-06-17T06:35:59.457Z,98506.00
2018-06-17T06:38:28.027Z,98516.00
2018-06-17T06:40:56.616Z,98520.00
2018-06-17T06:43:24.997Z,98522.00
2018-06-17T06:45:53.395Z,98525.00
2018-06-17T06:48:21.855Z,98522.00
2018-06-17T06:50:50.547Z,98530.00
2018-06-17T06:53:19.176Z,98532.00
2018-06-17T06:55:50.253Z,98534.00
2018-06-17T06:58:21.175Z,98538.00
2018-06-17T07:00:50.897Z,98535.00
2018-06-17T07:03:30.603Z,98530.00
2018-06-17T07:08:12.205Z,98538.00
2018-06-17T07:10:41.129Z,98536.00
2018-06-17T07:13:10.141Z,98536.00
2018-06-17T07:15:50.117Z,98541.00
2018-06-17T07:18:41.469Z,98545.00
2018-06-17T07:21:11.517Z,98546.00
2018-06-17T07:23:39.999Z,98542.00
2018-06-17T07:26:33.508Z,98545.00
2018-06-17T07:29:14.243Z,98548.00
2018-06-17T07:31:42.709Z,98545.00
2018-06-17T07:34:12.050Z,98548.00
2018-06-17T07:36:40.744Z,98549.00
2018-06-17T07:41:24.192Z,98552.00
2018-06-17T07:43:53.793Z,98557.00
2018-06-17T07:46:22.516Z,98562.00
2018-06-17T07:49:27.693Z,98564.00
2018-06-17T07:52:09.621Z,98573.00
2018-06-17T07:54:39.289Z,98572.00
2018-06-17T07:57:08.532Z,98575.00
2018-06-17T07:59:37.963Z,98576.00
2018-06-17T08:02:12.104Z,98576.00
2018-06-17T08:04:55.276Z,98577.00
2018-06-17T08:07:23.800Z,98572.00
2018-06-17T08:09:52.274Z,98576.00
2018-06-17T08:12:22.303Z,98579.00
2018-06-17T08:14:50.761Z,98577.00
2018-06-17T08:17:19.158Z,98579.00
2018-06-17T08:19:47.559Z,98582.00
2018-06-17T08:22:16.071Z,98580.00
2018-06-17T08:24:44.501Z,98580.00
2018-06-17T08:27:13.026Z,98579.00
2018-06-17T08:29:41.503Z,98576.00
2018-06-17T08:32:10.081Z,98574.00
2018-06-17T08:34:38.565Z,98577.00
2018-06-17T08:37:08.040Z,98575.00
2018-06-17T08:39:36.523Z,98575.00
2018-06-17T08:42:04.986Z,98577.00
2018-06-17T08:44:33.460Z,98576.00
2018-06-17T08:47:02.036Z,98580.00
2018-06-17T08:49:30.505Z,98581.00
2018-06-17T08:51:59.319Z,98590.00
2018-06-17T08:54:27.919Z,98590.00
2018-06-17T08:56:58.546Z,98588.00
2018-06-17T08:59:29.206Z,98584.00
2018-06-17T09:01:57.762Z,98584.00
2018-06-17T09:04:26.328Z,98584.00
2018-06-17T09:06:54.835Z,98578.00
2018-06-17T09:09:23.338Z,98582.00
2018-06-17T09:11:51.817Z,98579.00
2018-06-17T09:14:20.489Z,98577.00
2018-06-17T09:16:48.920Z,98572.00
2018-06-17T09:19:17.468Z,98576.00
2018-06-17T09:21:47.887Z,98578.00
2018-06-17T09:24:18.074Z,98580.00
2018-06-17T09:26:48.629Z,98579.00
2018-06-17T09:29:19.771Z,98579.00
2018-06-17T09:31:48.258Z,98570.00
2018-06-17T09:34:17.748Z,98568.00
2018-06-17T09:36:48.930Z,98567.00
2018-06-17T09:39:17.340Z,98569.00
2018-06-17T09:41:46.339Z,98567.00
2018-06-17T09:44:22.914Z,98561.00
2018-06-17T09:46:52.082Z,98563.00
2018-06-17T09:49:20.514Z,98562.00
2018-06-17T09:55:09.389Z,98559.00
2018-06-17T09:57:39.504Z,98558.00
2018-06-17T10:00:19.989Z,98553.00
2018-06-17T10:03:04.168Z,98549.00
2018-06-17T10:09:01.623Z,98546.00
2018-06-17T10:11:37.397Z,98539.00
2018-06-17T10:14:19.236Z,98532.00
2018-06-17T10:17:00.523Z,98531.00
2018-06-17T10:20:01.517Z,98529.00
2018-06-17T10:22:30.184Z,98533.00
2018-06-17T10:24:58.907Z,98533.00
2018-06-17T10:27:29.770Z,98530.00
2018-06-17T10:29:58.993Z,98534.00
2018-06-17T10:32:29.895Z,98536.00
2018-06-17T10:34:59.626Z,98535.00
2018-06-17T10:37:28.752Z,98529.00
2018-06-17T10:39:57.475Z,98531.00
2018-06-17T10:42:26.758Z,98533.00
2018-06-17T10:44:58.843Z,98526.00
2018-06-17T10:47:30.868Z,98524.00
2018-06-17T10:49:59.623Z,98516.00
2018-06-17T10:52:28.634Z,98513.00
2018-06-17T10:55:01.767Z,98506.00
2018-06-17T10:57:33.995Z,98500.00
2018-06-17T11:00:02.757Z,98508.00
2018-06-17T11:02:31.704Z,98505.00
2018-06-17T11:05:00.461Z,98506.00
2018-06-17T11:07:29.703Z,98510.00
2018-06-17T11:09:59.693Z,98514.00
2018-06-17T11:12:28.972Z,98514.00
2018-06-17T11:14:59.165Z,98507.00
2018-06-17T11:17:29.846Z,98504.00
2018-06-17T11:19:58.839Z,98494.00
2018-06-17T11:22:30.812Z,98491.00
2018-06-17T11:24:59.810Z,98490.00
2018-06-17T11:27:28.971Z,98490.00
2018-06-17T11:29:58.644Z,98488.00
2018-06-17T11:32:29.266Z,98489.00
2018-06-17T11:34:59.159Z,98486.00
2018-06-17T11:37:29.404Z,98493.00
2018-06-17T11:39:58.942Z,98487.00
2018-06-17T11:42:28.958Z,98487.00
2018-06-17T11:44:59.041Z,98486.00
2018-06-17T11:47:30.286Z,98490.00
2018-06-17T11:50:02.144Z,98486.00
2018-06-17T11:52:31.179Z,98485.00
2018-06-17T11:54:59.957Z,98487.00
2018-06-17T11:57:28.934Z,98488.00
2018-06-17T12:00:01.002Z,98482.00
2018-06-17T12:02:30.037Z,98480.00
2018-06-17T12:05:00.769Z,98481.00
2018-06-17T12:07:29.888Z,98487.00
2018-06-17T12:10:00.365Z,98482.00
2018-06-17T12:12:30.635Z,98480.00
2018-06-17T12:15:01.037Z,98484.00
2018-06-17T12:17:31.023Z,98480.00
2018-06-17T12:20:01.176Z,98483.00
2018-06-17T12:22:31.176Z,98485.00
2018-06-17T12:25:01.418Z,98480.00
2018-06-17T12:27:30.505Z,98485.00
2018-06-17T12:30:00.780Z,98490.00
2018-06-17T12:32:30.798Z,98479.00
2018-06-17T12:35:01.065Z,98487.00
2018-06-17T12:37:31.052Z,98493.00
2018-06-17T12:40:00.845Z,98496.00
2018-06-17T12:42:30.821Z,98500.00
2018-06-17T12:45:01.386Z,98506.00
2018-06-17T12:47:30.542Z,98504.00
2018-06-17T12:50:00.367Z,98510.00
2018-06-17T12:52:30.826Z,98510.00
2018-06-17T12:55:00.714Z,98516.00
2018-06-17T12:57:30.849Z,98515.00
2018-06-17T13:00:01.496Z,98524.00
2018-06-17T13:02:30.622Z,98525.00
2018-06-17T13:05:01.338Z,98517.00
2018-06-17T13:07:31.055Z,98524.00
2018-06-17T13:10:00.626Z,98526.00
2018-06-17T13:12:31.442Z,98525.00
2018-06-17T13:15:00.435Z,98532.00
2018-06-17T13:17:30.524Z,98528.00
2018-06-17T13:20:00.495Z,98526.00
2018-06-17T13:22:30.876Z,98533.00
2018-06-17T13:25:00.822Z,98531.00
2018-06-17T13:27:30.773Z,98528.00
2018-06-17T13:30:00.689Z,98526.00
2018-06-17T13:32:30.373Z,98530.00
2018-06-17T13:35:01.065Z,98532.00
2018-06-17T13:37:30.709Z,98532.00
2018-06-17T13:40:01.005Z,98530.00
2018-06-17T13:42:30.539Z,98532.00
2018-06-17T13:45:00.844Z,98530.00
2018-06-17T13:47:30.954Z,98530.00
2018-06-17T13:50:00.343Z,98524.00
2018-06-17T13:52:30.482Z,98533.00
2018-06-17T13:55:02.197Z,98530.00
2018-06-17T13:57:31.274Z,98531.00
2018-06-17T14:00:00.075Z,98522.00
2018-06-17T14:02:31.946Z,98529.00
2018-06-17T14:05:00.708Z,98533.00
2018-06-17T14:07:30.250Z,98529.00
2018-06-17T14:10:00.963Z,98528.00
2018-06-17T14:12:30.018Z,98533.00
2018-06-17T14:15:00.611Z,98536.00
2018-06-17T14:17:30.614Z,98538.00
2018-06-17T14:20:00.226Z,98537.00
2018-06-17T14:22:30.265Z,98526.00
2018-06-17T14:24:59.474Z,98536.00
2018-06-17T14:27:30.002Z,98534.00
2018-06-17T14:30:00.095Z,98542.00
2018-06-17T14:32:30.039Z,98541.00
2018-06-17T14:35:00.654Z,98541.00
2018-06-17T14:37:30.477Z,98541.00
2018-06-17T14:40:00.450Z,98541.00
2018-06-17T14:42:37.435Z,98539.00
2018-06-17T14:45:11.828Z,98541.00
2018-06-17T14:47:49.491Z,98542.00
2018-06-17T14:50:27.618Z,98542.00
2018-06-17T14:53:01.811Z,98545.00
2018-06-17T14:55:30.494Z,98545.00
2018-06-17T14:57:59.940Z,98552.00
2018-06-17T15:00:29.902Z,98549.00
2018-06-17T15:03:00.171Z,98549.00
2018-06-17T15:05:30.505Z,98541.00
2018-06-17T15:08:00.273Z,98546.00
2018-06-17T15:10:29.923Z,98550.00
2018-06-17T15:13:00.157Z,98551.00
2018-06-17T15:15:30.034Z,98548.00
2018-06-17T15:18:00.245Z,98557.00
2018-06-17T15:20:30.150Z,98554.00
2018-06-17T15:22:58.989Z,98555.00
2018-06-17T15:25:28.058Z,98555.00
2018-06-17T15:28:03.014Z,98559.00
2018-06-17T15:30:44.068Z,98556.00
2018-06-17T15:33:23.825Z,98557.00
2018-06-17T15:36:01.773Z,98552.00
2018-06-17T15:38:43.625Z,98553.00
2018-06-17T15:41:25.631Z,98557.00
2018-06-17T15:44:03.000Z,98558.00
2018-06-17T15:49:12.634Z,98559.00
2018-06-17T15:51:41.744Z,98558.00
2018-06-17T15:54:10.766Z,98559.00
2018-06-17T15:56:39.827Z,98563.00
2018-06-17T15:59:08.876Z,98558.00
2018-06-17T16:01:38.464Z,98555.00
2018-06-17T16:04:07.631Z,98554.00
2018-06-17T16:06:36.845Z,98560.00
2018-06-17T16:09:08.932Z,98554.00
2018-06-17T16:11:43.756Z,98559.00
2018-06-17T16:14:18.012Z,98563.00
2018-06-17T16:16:52.510Z,98562.00
2018-06-17T16:19:27.099Z,98561.00
2018-06-17T16:21:57.222Z,98560.00
2018-06-17T16:24:25.980Z,98559.00
2018-06-17T16:26:55.288Z,98563.00
2018-06-17T16:29:24.213Z,98560.00
2018-06-17T16:31:54.095Z,98564.00
2018-06-17T16:34:22.703Z,98569.00
2018-06-17T16:36:51.687Z,98569.00
2018-06-17T16:39:20.438Z,98571.00
2018-06-17T16:41:50.398Z,98574.00
2018-06-17T16:44:19.114Z,98578.00
2018-06-17T16:46:47.849Z,98575.00
2018-06-17T16:49:16.537Z,98581.00
2018-06-17T16:51:50.497Z,98583.00
2018-06-17T16:54:24.326Z,98586.00
2018-06-17T16:56:57.970Z,98585.00
2018-06-17T16:59:31.822Z,98592.00
2018-06-17T17:02:01.136Z,98592.00
2018-06-17T17:04:30.285Z,98593.00
2018-06-17T17:06:58.794Z,98589.00
2018-06-17T17:09:27.361Z,98597.00
2018-06-17T17:11:57.030Z,98595.00
2018-06-17T17:14:28.464Z,98599.00
2018-06-17T17:17:00.418Z,98604.00
2018-06-17T17:19:32.434Z,98606.00
2018-06-17T17:22:04.407Z,98605.00
2018-06-17T17:24:32.907Z,98615.00
2018-06-17T17:27:01.332Z,98614.00
2018-06-17T17:29:29.887Z,98621.00
2018-06-17T17:32:08.848Z,98611.00
2018-06-17T17:34:56.311Z,98606.00
2018-06-17T17:37:34.212Z,98610.00
2018-06-17T17:40:14.365Z,98616.00
2018-06-17T17:42:56.885Z,98615.00
2018-06-17T17:45:28.016Z,98616.00
2018-06-17T17:48:01.131Z,98617.00
2018-06-17T17:50:56.071Z,98618.00
2018-06-17T17:53:31.596Z,98620.00
2018-06-17T17:56:05.813Z,98618.00
2018-06-17T17:58:41.486Z,98616.00
2018-06-17T18:01:10.003Z,98620.00
2018-06-17T18:03:38.548Z,98616.00
2018-06-17T18:06:18.807Z,98623.00
2018-06-17T18:08:48.826Z,98620.00
2018-06-17T18:11:28.291Z,98632.00
2018-06-17T18:13:59.267Z,98626.00
2018-06-17T18:16:39.508Z,98628.00
2018-06-17T18:19:11.778Z,98633.00
2018-06-17T18:21:49.472Z,98639.00
2018-06-17T18:24:20.416Z,98643.00
2018-06-17T18:27:01.865Z,98649.00
2018-06-17T18:32:23.579Z,98657.00
2018-06-17T18:35:08.555Z,98661.00
2018-06-17T18:37:49.154Z,98661.00
2018-06-17T18:40:20.036Z,98666.00
2018-06-17T18:43:00.959Z,98666.00
2018-06-17T18:45:29.365Z,98664.00
2018-06-17T18:47:57.816Z,98667.00
2018-06-17T18:50:28.518Z,98664.00
2018-06-17T18:52:59.548Z,98669.00
2018-06-17T18:55:28.112Z,98669.00
2018-06-17T18:57:56.551Z,98667.00
2018-06-17T19:00:25.352Z,98668.00
2018-06-17T19:02:53.869Z,98671.00
2018-06-17T19:05:22.337Z,98672.00
2018-06-17T19:07:52.163Z,98672.00
2018-06-17T19:10:26.362Z,98682.00
2018-06-17T19:13:01.268Z,98690.00
2018-06-17T19:15:35.416Z,98699.00
2018-06-17T19:18:06.141Z,98698.00
2018-06-17T19:20:34.977Z,98700.00
2018-06-17T19:23:05.433Z,98697.00
2018-06-17T19:25:35.025Z,98705.00
2018-06-17T19:28:03.474Z,98701.00
2018-06-17T19:30:32.051Z,98704.00
2018-06-17T19:33:00.776Z,98708.00
2018-06-17T19:35:29.351Z,98710.00
2018-06-17T19:37:57.893Z,98706.00
2018-06-17T19:40:26.833Z,98703.00
2018-06-17T19:42:55.992Z,98706.00
2018-06-17T19:45:24.487Z,98709.00
2018-06-17T19:47:53.115Z,98708.00
2018-06-17T19:50:26.749Z,98705.00
2018-06-17T19:53:00.848Z,98713.00
2018-06-17T19:55:34.642Z,98716.00
2018-06-17T19:58:08.165Z,98719.00
2018-06-17T20:00:38.847Z,98720.00
2018-06-17T20:03:10.139Z,98721.00
2018-06-17T20:05:38.485Z,98721.00
2018-06-17T20:08:06.836Z,98722.00
2018-06-17T20:10:35.508Z,98722.00
2018-06-17T20:13:04.273Z,98725.00
2018-06-17T20:15:32.910Z,98721.00
2018-06-17T20:18:01.409Z,98718.00
2018-06-17T20:20:29.862Z,98718.00
2018-06-17T20:22:58.497Z,98723.00
2018-06-17T20:25:26.851Z,98719.00
2018-06-17T20:27:55.167Z,98717.00
2018-06-17T20:30:23.487Z,98717.00
2018-06-17T20:32:57.653Z,98723.00
2018-06-17T20:35:31.330Z,98726.00
2018-06-17T20:38:04.938Z,98732.00
2018-06-17T20:40:38.521Z,98730.00
2018-06-17T20:43:12.105Z,98736.00
2018-06-17T20:45:40.764Z,98737.00
2018-06-17T20:48:09.118Z,98736.00
2018-06-17T20:50:37.398Z,98736.00
2018-06-17T20:53:05.842Z,98732.00
2018-06-17T20:55:34.194Z,98730.00
2018-06-17T20:58:02.600Z,98728.00
2018-06-17T21:00:31.674Z,98731.00
2018-06-17T21:02:59.999Z,98732.00
2018-06-17T21:05:28.338Z,98726.00
2018-06-17T21:07:56.729Z,98728.00
2018-06-17T21:10:25.389Z,98728.00
2018-06-17T21:12:53.741Z,98732.00
2018-06-17T21:15:22.247Z,98736.00
2018-06-17T21:17:51.453Z,98738.00
2018-06-17T21:20:25.300Z,98741.00
2018-06-17T21:22:59.017Z,98741.00
2018-06-17T21:25:32.622Z,98737.00
2018-06-17T21:28:02.274Z,98738.00
2018-06-17T21:30:31.641Z,98746.00
2018-06-17T21:33:00.026Z,98748.00
2018-06-17T21:35:28.329Z,98751.00
2018-06-17T21:37:57.633Z,98760.00
2018-06-17T21:40:27.709Z,98761.00
2018-06-17T21:42:58.206Z,98767.00
2018-06-17T21:45:28.274Z,98762.00
2018-06-17T21:47:57.587Z,98763.00
2018-06-17T21:50:26.433Z,98767.00
2018-06-17T21:52:57.663Z,98774.00
2018-06-17T21:55:29.283Z,98776.00
2018-06-17T21:57:57.607Z,98775.00
2018-06-17T22:00:26.131Z,98770.00
2018-06-17T22:02:56.335Z,98770.00
2018-06-17T22:05:27.123Z,98771.00
2018-06-17T22:08:05.007Z,98770.00
2018-06-17T22:14:57.438Z,98771.00
2018-06-17T22:17:35.205Z,98775.00
2018-06-17T22:20:05.312Z,98781.00
2018-06-17T22:22:35.189Z,98784.00
2018-06-17T22:25:05.747Z,98787.00
2018-06-17T22:27:36.249Z,98791.00
2018-06-17T22:30:04.676Z,98795.00
2018-06-17T22:32:33.047Z,98796.00
2018-06-17T22:35:01.373Z,98803.00
2018-06-17T22:37:29.740Z,98800.00
2018-06-17T22:39:58.259Z,98804.00
2018-06-17T22:42:27.843Z,98804.00
2018-06-17T22:44:57.182Z,98806.00
2018-06-17T22:47:34.812Z,98811.00
2018-06-17T22:50:03.278Z,98816.00
2018-06-17T22:52:36.786Z,98817.00
2018-06-17T22:55:07.869Z,98821.00
2018-06-17T22:57:44.193Z,98831.00
2018-06-17T23:00:18.381Z,98827.00
2018-06-17T23:02:54.353Z,98832.00
2018-06-17T23:05:28.363Z,98834.00
2018-06-17T23:08:02.177Z,98836.00
2018-06-17T23:10:30.514Z,98842.00
2018-06-17T23:12:58.874Z,98839.00
2018-06-17T23:15:27.198Z,98838.00
2018-06-17T23:17:56.730Z,98847.00
2018-06-17T23:20:26.590Z,98844.00
2018-06-17T23:22:56.992Z,98842.00
2018-06-17T23:25:27.496Z,98842.00
2018-06-17T23:27:57.727Z,98844.00
2018-06-17T23:30:26.092Z,98846.00
2018-06-17T23:32:57.334Z,98851.00
2018-06-17T23:35:27.410Z,98854.00
2018-06-17T23:37:57.055Z,98856.00
2018-06-17T23:40:27.269Z,98858.00
2018-06-17T23:42:56.876Z,98855.00
2018-06-17T23:45:25.969Z,98861.00
2018-06-17T23:48:01.029Z,98856.00
2018-06-17T23:52:38.665Z,98848.00
2018-06-17T23:56:10.842Z,98853.00
2018-06-17T23:58:39.828Z,98859.00
